sensor_id;sensor_type;location;lat;lon;timestamp;P1;durP1;ratioP1;P2;durP2;ratioP2
22531;SDS011;11432;46.924;7.114;2023-04-25T00:02:02;4.78;;;1.25;;
22531;SDS011;11432;46.924;7.114;2023-04-25T00:04:28;5.15;;;1.40;;
22531;SDS011;11432;46.924;7.114;2023-04-25T00:06:54;2.88;;;1.10;;
22531;SDS011;11432;46.924;7.114;2023-04-25T00:09:20;4.88;;;1.35;;
22531;SDS011;11432;46.924;7.114;2023-04-25T00:11:47;3.80;;;1.27;;
22531;SDS011;11432;46.924;7.114;2023-04-25T00:14:12;4.65;;;1.45;;
22531;SDS011;11432;46.924;7.114;2023-04-25T00:16:39;4.68;;;1.27;;
22531;SDS011;11432;46.924;7.114;2023-04-25T00:19:06;4.35;;;1.65;;
22531;SDS011;11432;46.924;7.114;2023-04-25T00:21:32;4.90;;;1.35;;
22531;SDS011;11432;46.924;7.114;2023-04-25T00:23:58;5.55;;;1.25;;
22531;SDS011;11432;46.924;7.114;2023-04-25T00:26:25;6.13;;;1.40;;
22531;SDS011;11432;46.924;7.114;2023-04-25T00:28:50;3.78;;;1.30;;
22531;SDS011;11432;46.924;7.114;2023-04-25T00:31:16;7.35;;;1.40;;
22531;SDS011;11432;46.924;7.114;2023-04-25T00:33:42;3.78;;;1.15;;
22531;SDS011;11432;46.924;7.114;2023-04-25T00:36:07;5.88;;;1.40;;
22531;SDS011;11432;46.924;7.114;2023-04-25T00:38:33;8.77;;;1.63;;
22531;SDS011;11432;46.924;7.114;2023-04-25T00:40:59;4.32;;;1.40;;
22531;SDS011;11432;46.924;7.114;2023-04-25T00:43:28;4.03;;;1.13;;
22531;SDS011;11432;46.924;7.114;2023-04-25T00:45:57;4.88;;;1.20;;
22531;SDS011;11432;46.924;7.114;2023-04-25T00:48:24;4.57;;;1.70;;
22531;SDS011;11432;46.924;7.114;2023-04-25T00:50:54;2.28;;;1.00;;
22531;SDS011;11432;46.924;7.114;2023-04-25T00:53:22;4.70;;;1.40;;
22531;SDS011;11432;46.924;7.114;2023-04-25T00:55:48;4.88;;;1.52;;
22531;SDS011;11432;46.924;7.114;2023-04-25T00:58:16;4.85;;;1.40;;
22531;SDS011;11432;46.924;7.114;2023-04-25T01:00:46;6.13;;;1.40;;
22531;SDS011;11432;46.924;7.114;2023-04-25T01:03:13;5.50;;;1.40;;
22531;SDS011;11432;46.924;7.114;2023-04-25T01:05:42;3.38;;;1.23;;
22531;SDS011;11432;46.924;7.114;2023-04-25T01:08:08;3.75;;;1.15;;
22531;SDS011;11432;46.924;7.114;2023-04-25T01:10:35;6.05;;;1.50;;
22531;SDS011;11432;46.924;7.114;2023-04-25T01:13:01;4.85;;;1.17;;
22531;SDS011;11432;46.924;7.114;2023-04-25T01:15:27;4.18;;;1.30;;
22531;SDS011;11432;46.924;7.114;2023-04-25T01:17:52;4.63;;;1.40;;
22531;SDS011;11432;46.924;7.114;2023-04-25T01:20:20;4.57;;;1.40;;
22531;SDS011;11432;46.924;7.114;2023-04-25T01:22:48;6.13;;;1.55;;
22531;SDS011;11432;46.924;7.114;2023-04-25T01:25:14;5.97;;;1.30;;
22531;SDS011;11432;46.924;7.114;2023-04-25T01:27:40;4.32;;;1.40;;
22531;SDS011;11432;46.924;7.114;2023-04-25T01:30:06;4.72;;;1.63;;
22531;SDS011;11432;46.924;7.114;2023-04-25T01:32:33;5.15;;;1.75;;
22531;SDS011;11432;46.924;7.114;2023-04-25T01:35:05;3.13;;;1.38;;
22531;SDS011;11432;46.924;7.114;2023-04-25T01:37:36;3.22;;;1.30;;
22531;SDS011;11432;46.924;7.114;2023-04-25T01:40:03;5.03;;;1.17;;
22531;SDS011;11432;46.924;7.114;2023-04-25T01:42:31;3.50;;;1.25;;
22531;SDS011;11432;46.924;7.114;2023-04-25T01:44:57;4.70;;;1.50;;
22531;SDS011;11432;46.924;7.114;2023-04-25T01:47:23;3.58;;;1.40;;
22531;SDS011;11432;46.924;7.114;2023-04-25T01:49:48;2.83;;;1.30;;
22531;SDS011;11432;46.924;7.114;2023-04-25T01:52:14;5.88;;;1.33;;
22531;SDS011;11432;46.924;7.114;2023-04-25T01:54:40;3.58;;;1.02;;
22531;SDS011;11432;46.924;7.114;2023-04-25T01:57:09;2.80;;;0.98;;
22531;SDS011;11432;46.924;7.114;2023-04-25T01:59:37;5.93;;;1.35;;
22531;SDS011;11432;46.924;7.114;2023-04-25T02:02:03;4.97;;;1.20;;
22531;SDS011;11432;46.924;7.114;2023-04-25T02:04:29;3.60;;;1.15;;
22531;SDS011;11432;46.924;7.114;2023-04-25T02:06:55;3.92;;;1.30;;
22531;SDS011;11432;46.924;7.114;2023-04-25T02:09:21;2.97;;;1.30;;
22531;SDS011;11432;46.924;7.114;2023-04-25T02:11:47;5.25;;;1.17;;
22531;SDS011;11432;46.924;7.114;2023-04-25T02:14:13;2.40;;;0.90;;
22531;SDS011;11432;46.924;7.114;2023-04-25T02:16:38;7.82;;;1.38;;
22531;SDS011;11432;46.924;7.114;2023-04-25T02:19:04;2.88;;;0.90;;
22531;SDS011;11432;46.924;7.114;2023-04-25T02:21:31;2.17;;;0.85;;
22531;SDS011;11432;46.924;7.114;2023-04-25T02:23:57;3.13;;;0.98;;
22531;SDS011;11432;46.924;7.114;2023-04-25T02:26:22;2.72;;;0.90;;
22531;SDS011;11432;46.924;7.114;2023-04-25T02:28:51;4.80;;;1.00;;
22531;SDS011;11432;46.924;7.114;2023-04-25T02:31:17;3.50;;;1.02;;
22531;SDS011;11432;46.924;7.114;2023-04-25T02:33:42;2.70;;;0.88;;
22531;SDS011;11432;46.924;7.114;2023-04-25T02:36:08;5.05;;;1.05;;
22531;SDS011;11432;46.924;7.114;2023-04-25T02:38:34;2.92;;;1.00;;
22531;SDS011;11432;46.924;7.114;2023-04-25T02:41:00;3.05;;;1.00;;
22531;SDS011;11432;46.924;7.114;2023-04-25T02:43:25;2.50;;;0.82;;
22531;SDS011;11432;46.924;7.114;2023-04-25T02:45:51;4.07;;;1.13;;
22531;SDS011;11432;46.924;7.114;2023-04-25T02:48:17;3.00;;;0.93;;
22531;SDS011;11432;46.924;7.114;2023-04-25T02:50:42;3.50;;;1.02;;
22531;SDS011;11432;46.924;7.114;2023-04-25T02:53:08;3.08;;;0.98;;
22531;SDS011;11432;46.924;7.114;2023-04-25T02:55:34;1.88;;;0.90;;
22531;SDS011;11432;46.924;7.114;2023-04-25T02:57:59;2.75;;;1.00;;
22531;SDS011;11432;46.924;7.114;2023-04-25T03:00:25;2.97;;;1.10;;
22531;SDS011;11432;46.924;7.114;2023-04-25T03:02:51;2.65;;;0.65;;
22531;SDS011;11432;46.924;7.114;2023-04-25T03:05:16;3.08;;;0.80;;
22531;SDS011;11432;46.924;7.114;2023-04-25T03:07:43;1.98;;;0.80;;
22531;SDS011;11432;46.924;7.114;2023-04-25T03:10:09;4.45;;;1.00;;
22531;SDS011;11432;46.924;7.114;2023-04-25T03:12:35;3.65;;;1.02;;
22531;SDS011;11432;46.924;7.114;2023-04-25T03:15:01;3.25;;;1.00;;
22531;SDS011;11432;46.924;7.114;2023-04-25T03:17:27;2.50;;;0.80;;
22531;SDS011;11432;46.924;7.114;2023-04-25T03:19:53;2.88;;;0.80;;
22531;SDS011;11432;46.924;7.114;2023-04-25T03:22:19;2.75;;;1.02;;
22531;SDS011;11432;46.924;7.114;2023-04-25T03:24:44;3.80;;;0.70;;
22531;SDS011;11432;46.924;7.114;2023-04-25T03:27:10;3.25;;;0.88;;
22531;SDS011;11432;46.924;7.114;2023-04-25T03:29:36;2.47;;;0.82;;
22531;SDS011;11432;46.924;7.114;2023-04-25T03:32:01;2.13;;;0.80;;
22531;SDS011;11432;46.924;7.114;2023-04-25T03:34:27;2.95;;;0.80;;
22531;SDS011;11432;46.924;7.114;2023-04-25T03:36:53;3.63;;;1.00;;
22531;SDS011;11432;46.924;7.114;2023-04-25T03:39:18;2.58;;;0.90;;
22531;SDS011;11432;46.924;7.114;2023-04-25T03:41:44;2.45;;;0.88;;
22531;SDS011;11432;46.924;7.114;2023-04-25T03:44:09;1.52;;;0.90;;
22531;SDS011;11432;46.924;7.114;2023-04-25T03:46:35;3.47;;;0.82;;
22531;SDS011;11432;46.924;7.114;2023-04-25T03:49:00;3.20;;;1.10;;
22531;SDS011;11432;46.924;7.114;2023-04-25T03:51:26;1.92;;;0.70;;
22531;SDS011;11432;46.924;7.114;2023-04-25T03:53:52;2.92;;;0.82;;
22531;SDS011;11432;46.924;7.114;2023-04-25T03:56:17;2.53;;;0.90;;
22531;SDS011;11432;46.924;7.114;2023-04-25T03:58:43;2.67;;;0.82;;
22531;SDS011;11432;46.924;7.114;2023-04-25T04:01:09;3.33;;;0.90;;
22531;SDS011;11432;46.924;7.114;2023-04-25T04:03:36;3.85;;;0.98;;
22531;SDS011;11432;46.924;7.114;2023-04-25T04:06:02;1.85;;;0.90;;
22531;SDS011;11432;46.924;7.114;2023-04-25T04:08:29;1.17;;;0.63;;
22531;SDS011;11432;46.924;7.114;2023-04-25T04:10:55;1.20;;;0.70;;
22531;SDS011;11432;46.924;7.114;2023-04-25T04:13:22;3.22;;;1.00;;
22531;SDS011;11432;46.924;7.114;2023-04-25T04:15:47;1.83;;;0.93;;
22531;SDS011;11432;46.924;7.114;2023-04-25T04:18:13;4.57;;;1.13;;
22531;SDS011;11432;46.924;7.114;2023-04-25T04:20:38;4.10;;;1.02;;
22531;SDS011;11432;46.924;7.114;2023-04-25T04:23:04;6.07;;;1.13;;
22531;SDS011;11432;46.924;7.114;2023-04-25T04:25:30;2.17;;;0.93;;
22531;SDS011;11432;46.924;7.114;2023-04-25T04:27:56;2.92;;;1.10;;
22531;SDS011;11432;46.924;7.114;2023-04-25T04:30:22;1.98;;;1.00;;
22531;SDS011;11432;46.924;7.114;2023-04-25T04:32:49;3.92;;;1.27;;
22531;SDS011;11432;46.924;7.114;2023-04-25T04:35:15;2.13;;;0.90;;
22531;SDS011;11432;46.924;7.114;2023-04-25T04:37:41;2.17;;;1.00;;
22531;SDS011;11432;46.924;7.114;2023-04-25T04:40:07;3.00;;;1.10;;
22531;SDS011;11432;46.924;7.114;2023-04-25T04:42:33;1.63;;;0.90;;
22531;SDS011;11432;46.924;7.114;2023-04-25T04:44:58;2.95;;;0.88;;
22531;SDS011;11432;46.924;7.114;2023-04-25T04:47:26;1.67;;;0.88;;
22531;SDS011;11432;46.924;7.114;2023-04-25T04:49:55;3.75;;;1.10;;
22531;SDS011;11432;46.924;7.114;2023-04-25T04:52:21;3.50;;;1.00;;
22531;SDS011;11432;46.924;7.114;2023-04-25T04:54:46;1.83;;;0.80;;
22531;SDS011;11432;46.924;7.114;2023-04-25T04:57:12;2.88;;;1.02;;
22531;SDS011;11432;46.924;7.114;2023-04-25T04:59:38;1.92;;;0.90;;
22531;SDS011;11432;46.924;7.114;2023-04-25T05:02:03;1.48;;;0.82;;
22531;SDS011;11432;46.924;7.114;2023-04-25T05:04:29;4.55;;;1.13;;
22531;SDS011;11432;46.924;7.114;2023-04-25T05:06:54;2.50;;;1.10;;
22531;SDS011;11432;46.924;7.114;2023-04-25T05:09:20;2.00;;;1.15;;
22531;SDS011;11432;46.924;7.114;2023-04-25T05:11:45;4.03;;;1.50;;
22531;SDS011;11432;46.924;7.114;2023-04-25T05:14:11;3.17;;;1.10;;
22531;SDS011;11432;46.924;7.114;2023-04-25T05:16:37;5.20;;;1.20;;
22531;SDS011;11432;46.924;7.114;2023-04-25T05:19:02;4.53;;;1.38;;
22531;SDS011;11432;46.924;7.114;2023-04-25T05:21:28;3.25;;;1.30;;
22531;SDS011;11432;46.924;7.114;2023-04-25T05:23:53;3.28;;;1.30;;
22531;SDS011;11432;46.924;7.114;2023-04-25T05:26:19;4.20;;;1.20;;
22531;SDS011;11432;46.924;7.114;2023-04-25T05:28:45;3.55;;;1.13;;
22531;SDS011;11432;46.924;7.114;2023-04-25T05:31:11;4.72;;;1.40;;
22531;SDS011;11432;46.924;7.114;2023-04-25T05:33:37;2.70;;;1.15;;
22531;SDS011;11432;46.924;7.114;2023-04-25T05:36:02;3.53;;;1.20;;
22531;SDS011;11432;46.924;7.114;2023-04-25T05:38:28;5.00;;;1.50;;
22531;SDS011;11432;46.924;7.114;2023-04-25T05:40:54;3.35;;;1.30;;
22531;SDS011;11432;46.924;7.114;2023-04-25T05:43:20;3.67;;;1.25;;
22531;SDS011;11432;46.924;7.114;2023-04-25T05:45:46;6.15;;;1.40;;
22531;SDS011;11432;46.924;7.114;2023-04-25T05:48:11;3.60;;;1.45;;
22531;SDS011;11432;46.924;7.114;2023-04-25T05:50:37;4.88;;;1.85;;
22531;SDS011;11432;46.924;7.114;2023-04-25T05:53:03;5.80;;;1.77;;
22531;SDS011;11432;46.924;7.114;2023-04-25T05:55:30;5.60;;;1.77;;
22531;SDS011;11432;46.924;7.114;2023-04-25T05:57:56;2.40;;;1.67;;
22531;SDS011;11432;46.924;7.114;2023-04-25T06:00:21;4.93;;;1.33;;
22531;SDS011;11432;46.924;7.114;2023-04-25T06:02:47;3.47;;;1.40;;
22531;SDS011;11432;46.924;7.114;2023-04-25T06:05:13;3.42;;;1.25;;
22531;SDS011;11432;46.924;7.114;2023-04-25T06:07:39;3.78;;;1.50;;
22531;SDS011;11432;46.924;7.114;2023-04-25T06:10:06;3.10;;;1.55;;
22531;SDS011;11432;46.924;7.114;2023-04-25T06:12:32;4.95;;;1.42;;
22531;SDS011;11432;46.924;7.114;2023-04-25T06:14:58;3.78;;;1.48;;
22531;SDS011;11432;46.924;7.114;2023-04-25T06:17:24;3.05;;;1.15;;
22531;SDS011;11432;46.924;7.114;2023-04-25T06:19:50;4.25;;;1.30;;
22531;SDS011;11432;46.924;7.114;2023-04-25T06:22:16;1.83;;;1.17;;
22531;SDS011;11432;46.924;7.114;2023-04-25T06:24:41;2.22;;;1.13;;
22531;SDS011;11432;46.924;7.114;2023-04-25T06:27:07;5.60;;;1.48;;
22531;SDS011;11432;46.924;7.114;2023-04-25T06:29:32;5.63;;;1.90;;
22531;SDS011;11432;46.924;7.114;2023-04-25T06:31:58;4.82;;;1.50;;
22531;SDS011;11432;46.924;7.114;2023-04-25T06:34:24;4.20;;;1.45;;
22531;SDS011;11432;46.924;7.114;2023-04-25T06:36:49;3.22;;;1.10;;
22531;SDS011;11432;46.924;7.114;2023-04-25T06:39:15;3.08;;;1.40;;
22531;SDS011;11432;46.924;7.114;2023-04-25T06:41:41;3.38;;;1.00;;
22531;SDS011;11432;46.924;7.114;2023-04-25T06:44:06;3.63;;;1.60;;
22531;SDS011;11432;46.924;7.114;2023-04-25T06:46:32;5.07;;;1.80;;
22531;SDS011;11432;46.924;7.114;2023-04-25T06:48:58;3.33;;;1.58;;
22531;SDS011;11432;46.924;7.114;2023-04-25T06:51:23;5.05;;;1.70;;
22531;SDS011;11432;46.924;7.114;2023-04-25T06:53:49;0.43;;;0.32;;
22531;SDS011;11432;46.924;7.114;2023-04-25T06:56:15;2.97;;;0.80;;
22531;SDS011;11432;46.924;7.114;2023-04-25T06:58:41;3.33;;;1.23;;
22531;SDS011;11432;46.924;7.114;2023-04-25T07:01:06;2.47;;;0.60;;
22531;SDS011;11432;46.924;7.114;2023-04-25T07:03:32;0.75;;;0.70;;
22531;SDS011;11432;46.924;7.114;2023-04-25T07:05:57;1.40;;;0.75;;
22531;SDS011;11432;46.924;7.114;2023-04-25T07:08:23;1.75;;;0.60;;
22531;SDS011;11432;46.924;7.114;2023-04-25T07:10:49;1.65;;;0.50;;
22531;SDS011;11432;46.924;7.114;2023-04-25T07:13:14;1.95;;;0.60;;
22531;SDS011;11432;46.924;7.114;2023-04-25T07:15:40;1.48;;;0.50;;
22531;SDS011;11432;46.924;7.114;2023-04-25T07:18:06;1.60;;;0.73;;
22531;SDS011;11432;46.924;7.114;2023-04-25T07:20:32;0.75;;;0.60;;
22531;SDS011;11432;46.924;7.114;2023-04-25T07:22:58;3.38;;;0.80;;
22531;SDS011;11432;46.924;7.114;2023-04-25T07:25:23;1.88;;;0.73;;
22531;SDS011;11432;46.924;7.114;2023-04-25T07:27:49;1.63;;;0.70;;
22531;SDS011;11432;46.924;7.114;2023-04-25T07:30:15;3.50;;;1.00;;
22531;SDS011;11432;46.924;7.114;2023-04-25T07:32:40;1.13;;;0.90;;
22531;SDS011;11432;46.924;7.114;2023-04-25T07:35:06;3.17;;;1.00;;
22531;SDS011;11432;46.924;7.114;2023-04-25T07:37:33;2.65;;;0.98;;
22531;SDS011;11432;46.924;7.114;2023-04-25T07:39:59;2.22;;;1.00;;
22531;SDS011;11432;46.924;7.114;2023-04-25T07:42:24;2.05;;;0.93;;
22531;SDS011;11432;46.924;7.114;2023-04-25T07:44:50;4.53;;;1.38;;
22531;SDS011;11432;46.924;7.114;2023-04-25T07:47:16;5.43;;;1.30;;
22531;SDS011;11432;46.924;7.114;2023-04-25T07:49:44;5.65;;;1.20;;
22531;SDS011;11432;46.924;7.114;2023-04-25T07:52:10;7.97;;;1.48;;
22531;SDS011;11432;46.924;7.114;2023-04-25T07:54:36;5.07;;;1.40;;
22531;SDS011;11432;46.924;7.114;2023-04-25T07:57:02;6.05;;;1.65;;
22531;SDS011;11432;46.924;7.114;2023-04-25T07:59:27;2.42;;;1.30;;
22531;SDS011;11432;46.924;7.114;2023-04-25T08:01:53;3.92;;;1.35;;
22531;SDS011;11432;46.924;7.114;2023-04-25T08:04:19;3.17;;;1.42;;
22531;SDS011;11432;46.924;7.114;2023-04-25T08:06:44;1.95;;;1.08;;
22531;SDS011;11432;46.924;7.114;2023-04-25T08:09:10;3.65;;;1.33;;
22531;SDS011;11432;46.924;7.114;2023-04-25T08:11:36;1.75;;;0.80;;
22531;SDS011;11432;46.924;7.114;2023-04-25T08:14:02;1.70;;;0.80;;
22531;SDS011;11432;46.924;7.114;2023-04-25T08:16:27;2.10;;;0.93;;
22531;SDS011;11432;46.924;7.114;2023-04-25T08:18:53;2.00;;;1.10;;
22531;SDS011;11432;46.924;7.114;2023-04-25T08:21:19;4.45;;;1.00;;
22531;SDS011;11432;46.924;7.114;2023-04-25T08:23:45;2.20;;;0.80;;
22531;SDS011;11432;46.924;7.114;2023-04-25T08:26:10;1.73;;;0.90;;
22531;SDS011;11432;46.924;7.114;2023-04-25T08:28:36;2.65;;;0.90;;
22531;SDS011;11432;46.924;7.114;2023-04-25T08:31:02;1.50;;;0.90;;
22531;SDS011;11432;46.924;7.114;2023-04-25T08:33:28;2.20;;;0.85;;
22531;SDS011;11432;46.924;7.114;2023-04-25T08:35:53;3.13;;;1.60;;
22531;SDS011;11432;46.924;7.114;2023-04-25T08:38:19;3.97;;;1.00;;
22531;SDS011;11432;46.924;7.114;2023-04-25T08:40:45;4.07;;;1.10;;
22531;SDS011;11432;46.924;7.114;2023-04-25T08:43:15;3.45;;;1.00;;
22531;SDS011;11432;46.924;7.114;2023-04-25T08:45:45;3.63;;;1.30;;
22531;SDS011;11432;46.924;7.114;2023-04-25T08:48:14;1.60;;;0.43;;
22531;SDS011;11432;46.924;7.114;2023-04-25T08:50:44;0.30;;;0.13;;
22531;SDS011;11432;46.924;7.114;2023-04-25T08:53:21;0.05;;;0.05;;
22531;SDS011;11432;46.924;7.114;2023-04-25T08:55:50;0.10;;;0.10;;
22531;SDS011;11432;46.924;7.114;2023-04-25T08:58:17;0.20;;;0.10;;
22531;SDS011;11432;46.924;7.114;2023-04-25T09:00:45;0.20;;;0.10;;
22531;SDS011;11432;46.924;7.114;2023-04-25T09:03:11;0.10;;;0.00;;
22531;SDS011;11432;46.924;7.114;2023-04-25T09:05:37;0.00;;;0.00;;
22531;SDS011;11432;46.924;7.114;2023-04-25T09:08:05;0.73;;;0.20;;
22531;SDS011;11432;46.924;7.114;2023-04-25T09:10:31;0.95;;;0.28;;
22531;SDS011;11432;46.924;7.114;2023-04-25T09:13:07;1.08;;;0.17;;
22531;SDS011;11432;46.924;7.114;2023-04-25T09:15:56;0.82;;;0.08;;
22531;SDS011;11432;46.924;7.114;2023-04-25T09:20:52;0.30;;;0.10;;
22531;SDS011;11432;46.924;7.114;2023-04-25T09:23:23;0.10;;;0.10;;
22531;SDS011;11432;46.924;7.114;2023-04-25T09:25:50;0.13;;;0.10;;
22531;SDS011;11432;46.924;7.114;2023-04-25T09:28:22;0.20;;;0.10;;
22531;SDS011;11432;46.924;7.114;2023-04-25T09:30:53;0.20;;;0.10;;
22531;SDS011;11432;46.924;7.114;2023-04-25T09:33:26;0.00;;;0.00;;
22531;SDS011;11432;46.924;7.114;2023-04-25T09:36:09;0.57;;;0.10;;
22531;SDS011;11432;46.924;7.114;2023-04-25T09:38:42;0.57;;;0.32;;
22531;SDS011;11432;46.924;7.114;2023-04-25T09:41:11;0.10;;;0.10;;
22531;SDS011;11432;46.924;7.114;2023-04-25T09:43:38;0.10;;;0.10;;
22531;SDS011;11432;46.924;7.114;2023-04-25T09:46:13;2.45;;;0.15;;
22531;SDS011;11432;46.924;7.114;2023-04-25T09:48:38;1.77;;;0.73;;
22531;SDS011;11432;46.924;7.114;2023-04-25T09:53:23;0.47;;;0.10;;
22531;SDS011;11432;46.924;7.114;2023-04-25T09:55:49;0.43;;;0.28;;
22531;SDS011;11432;46.924;7.114;2023-04-25T09:58:15;0.35;;;0.20;;
22531;SDS011;11432;46.924;7.114;2023-04-25T10:00:41;0.30;;;0.20;;
22531;SDS011;11432;46.924;7.114;2023-04-25T10:03:07;0.30;;;0.20;;
22531;SDS011;11432;46.924;7.114;2023-04-25T10:05:33;0.10;;;0.10;;
22531;SDS011;11432;46.924;7.114;2023-04-25T10:08:02;0.80;;;0.25;;
22531;SDS011;11432;46.924;7.114;2023-04-25T10:10:31;0.10;;;0.10;;
22531;SDS011;11432;46.924;7.114;2023-04-25T10:15:28;0.68;;;0.15;;
22531;SDS011;11432;46.924;7.114;2023-04-25T10:17:54;0.20;;;0.20;;
22531;SDS011;11432;46.924;7.114;2023-04-25T10:20:21;0.13;;;0.10;;
22531;SDS011;11432;46.924;7.114;2023-04-25T10:22:47;0.15;;;0.15;;
22531;SDS011;11432;46.924;7.114;2023-04-25T10:25:13;1.85;;;0.30;;
22531;SDS011;11432;46.924;7.114;2023-04-25T10:27:39;0.50;;;0.17;;
22531;SDS011;11432;46.924;7.114;2023-04-25T10:30:09;0.45;;;0.20;;
22531;SDS011;11432;46.924;7.114;2023-04-25T10:32:41;0.30;;;0.20;;
22531;SDS011;11432;46.924;7.114;2023-04-25T10:35:13;0.55;;;0.10;;
22531;SDS011;11432;46.924;7.114;2023-04-25T10:40:34;1.65;;;0.10;;
22531;SDS011;11432;46.924;7.114;2023-04-25T10:46:45;0.15;;;0.10;;
22531;SDS011;11432;46.924;7.114;2023-04-25T10:49:01;0.20;;;0.10;;
22531;SDS011;11432;46.924;7.114;2023-04-25T10:51:28;0.38;;;0.30;;
22531;SDS011;11432;46.924;7.114;2023-04-25T10:56:35;0.70;;;0.20;;
22531;SDS011;11432;46.924;7.114;2023-04-25T10:59:11;0.20;;;0.20;;
22531;SDS011;11432;46.924;7.114;2023-04-25T11:01:43;0.28;;;0.20;;
22531;SDS011;11432;46.924;7.114;2023-04-25T11:04:22;0.32;;;0.30;;
22531;SDS011;11432;46.924;7.114;2023-04-25T11:06:58;0.17;;;0.10;;
22531;SDS011;11432;46.924;7.114;2023-04-25T11:09:30;0.60;;;0.20;;
22531;SDS011;11432;46.924;7.114;2023-04-25T11:11:58;1.05;;;0.20;;
22531;SDS011;11432;46.924;7.114;2023-04-25T11:14:25;0.85;;;0.20;;
22531;SDS011;11432;46.924;7.114;2023-04-25T11:16:58;0.22;;;0.17;;
22531;SDS011;11432;46.924;7.114;2023-04-25T11:19:24;0.30;;;0.20;;
22531;SDS011;11432;46.924;7.114;2023-04-25T11:21:54;0.63;;;0.45;;
22531;SDS011;11432;46.924;7.114;2023-04-25T11:24:25;0.50;;;0.20;;
22531;SDS011;11432;46.924;7.114;2023-04-25T11:26:59;0.20;;;0.20;;
22531;SDS011;11432;46.924;7.114;2023-04-25T11:29:30;0.55;;;0.30;;
22531;SDS011;11432;46.924;7.114;2023-04-25T11:31:57;0.40;;;0.25;;
22531;SDS011;11432;46.924;7.114;2023-04-25T11:34:23;0.98;;;0.30;;
22531;SDS011;11432;46.924;7.114;2023-04-25T11:36:50;0.38;;;0.20;;
22531;SDS011;11432;46.924;7.114;2023-04-25T11:39:17;0.60;;;0.52;;
22531;SDS011;11432;46.924;7.114;2023-04-25T11:41:46;0.20;;;0.20;;
22531;SDS011;11432;46.924;7.114;2023-04-25T11:44:15;0.80;;;0.32;;
22531;SDS011;11432;46.924;7.114;2023-04-25T11:46:42;2.45;;;0.30;;
22531;SDS011;11432;46.924;7.114;2023-04-25T11:49:08;1.33;;;0.20;;
22531;SDS011;11432;46.924;7.114;2023-04-25T11:51:43;0.57;;;0.28;;
22531;SDS011;11432;46.924;7.114;2023-04-25T11:54:10;0.38;;;0.20;;
22531;SDS011;11432;46.924;7.114;2023-04-25T11:56:37;0.63;;;0.20;;
22531;SDS011;11432;46.924;7.114;2023-04-25T11:59:05;0.37;;;0.10;;
22531;SDS011;11432;46.924;7.114;2023-04-25T12:01:32;0.57;;;0.30;;
22531;SDS011;11432;46.924;7.114;2023-04-25T12:04:09;0.30;;;0.15;;
22531;SDS011;11432;46.924;7.114;2023-04-25T12:06:43;0.45;;;0.28;;
22531;SDS011;11432;46.924;7.114;2023-04-25T12:09:13;0.32;;;0.10;;
22531;SDS011;11432;46.924;7.114;2023-04-25T12:11:41;0.25;;;0.22;;
22531;SDS011;11432;46.924;7.114;2023-04-25T12:14:07;0.90;;;0.22;;
22531;SDS011;11432;46.924;7.114;2023-04-25T12:16:40;0.82;;;0.30;;
22531;SDS011;11432;46.924;7.114;2023-04-25T12:19:13;0.43;;;0.20;;
22531;SDS011;11432;46.924;7.114;2023-04-25T12:21:39;0.45;;;0.30;;
22531;SDS011;11432;46.924;7.114;2023-04-25T12:24:16;0.73;;;0.22;;
22531;SDS011;11432;46.924;7.114;2023-04-25T12:26:51;0.55;;;0.20;;
22531;SDS011;11432;46.924;7.114;2023-04-25T12:29:25;0.65;;;0.30;;
22531;SDS011;11432;46.924;7.114;2023-04-25T12:31:52;1.25;;;0.38;;
22531;SDS011;11432;46.924;7.114;2023-04-25T12:34:19;1.05;;;0.20;;
22531;SDS011;11432;46.924;7.114;2023-04-25T12:36:45;1.85;;;0.38;;
22531;SDS011;11432;46.924;7.114;2023-04-25T12:39:15;0.57;;;0.25;;
22531;SDS011;11432;46.924;7.114;2023-04-25T12:41:48;0.52;;;0.20;;
22531;SDS011;11432;46.924;7.114;2023-04-25T12:44:14;0.70;;;0.43;;
22531;SDS011;11432;46.924;7.114;2023-04-25T12:46:40;0.40;;;0.32;;
22531;SDS011;11432;46.924;7.114;2023-04-25T12:49:06;1.67;;;0.47;;
22531;SDS011;11432;46.924;7.114;2023-04-25T12:51:33;0.60;;;0.38;;
22531;SDS011;11432;46.924;7.114;2023-04-25T12:54:03;0.60;;;0.38;;
22531;SDS011;11432;46.924;7.114;2023-04-25T12:56:30;0.70;;;0.50;;
22531;SDS011;11432;46.924;7.114;2023-04-25T12:58:56;2.15;;;0.70;;
22531;SDS011;11432;46.924;7.114;2023-04-25T13:01:22;0.73;;;0.40;;
22531;SDS011;11432;46.924;7.114;2023-04-25T13:03:48;0.70;;;0.30;;
22531;SDS011;11432;46.924;7.114;2023-04-25T13:06:14;1.33;;;0.40;;
22531;SDS011;11432;46.924;7.114;2023-04-25T13:08:41;1.23;;;0.50;;
22531;SDS011;11432;46.924;7.114;2023-04-25T13:11:07;0.65;;;0.40;;
22531;SDS011;11432;46.924;7.114;2023-04-25T13:13:33;0.30;;;0.22;;
22531;SDS011;11432;46.924;7.114;2023-04-25T13:16:06;1.42;;;0.50;;
22531;SDS011;11432;46.924;7.114;2023-04-25T13:18:32;0.90;;;0.40;;
22531;SDS011;11432;46.924;7.114;2023-04-25T13:20:58;1.02;;;0.40;;
22531;SDS011;11432;46.924;7.114;2023-04-25T13:23:28;0.55;;;0.40;;
22531;SDS011;11432;46.924;7.114;2023-04-25T13:25:54;3.22;;;0.60;;
22531;SDS011;11432;46.924;7.114;2023-04-25T13:28:20;0.50;;;0.32;;
22531;SDS011;11432;46.924;7.114;2023-04-25T13:30:46;1.17;;;0.50;;
22531;SDS011;11432;46.924;7.114;2023-04-25T13:33:13;1.05;;;0.50;;
22531;SDS011;11432;46.924;7.114;2023-04-25T13:35:40;0.45;;;0.20;;
22531;SDS011;11432;46.924;7.114;2023-04-25T13:38:06;0.80;;;0.40;;
22531;SDS011;11432;46.924;7.114;2023-04-25T13:40:32;1.52;;;0.57;;
22531;SDS011;11432;46.924;7.114;2023-04-25T13:42:58;0.88;;;0.40;;
22531;SDS011;11432;46.924;7.114;2023-04-25T13:45:24;0.85;;;0.45;;
22531;SDS011;11432;46.924;7.114;2023-04-25T13:47:50;0.52;;;0.30;;
22531;SDS011;11432;46.924;7.114;2023-04-25T13:50:16;1.30;;;0.50;;
22531;SDS011;11432;46.924;7.114;2023-04-25T13:52:41;1.35;;;0.60;;
22531;SDS011;11432;46.924;7.114;2023-04-25T13:55:08;1.67;;;0.60;;
22531;SDS011;11432;46.924;7.114;2023-04-25T13:57:34;1.48;;;0.50;;
22531;SDS011;11432;46.924;7.114;2023-04-25T14:00:01;1.20;;;0.60;;
22531;SDS011;11432;46.924;7.114;2023-04-25T14:02:33;1.15;;;0.45;;
22531;SDS011;11432;46.924;7.114;2023-04-25T14:04:59;1.50;;;0.57;;
22531;SDS011;11432;46.924;7.114;2023-04-25T14:07:26;0.68;;;0.43;;
22531;SDS011;11432;46.924;7.114;2023-04-25T14:09:51;0.40;;;0.30;;
22531;SDS011;11432;46.924;7.114;2023-04-25T14:12:17;0.70;;;0.40;;
22531;SDS011;11432;46.924;7.114;2023-04-25T14:14:42;0.47;;;0.30;;
22531;SDS011;11432;46.924;7.114;2023-04-25T14:17:08;0.73;;;0.30;;
22531;SDS011;11432;46.924;7.114;2023-04-25T14:19:34;0.90;;;0.25;;
22531;SDS011;11432;46.924;7.114;2023-04-25T14:22:00;1.45;;;0.40;;
22531;SDS011;11432;46.924;7.114;2023-04-25T14:24:26;1.15;;;0.40;;
22531;SDS011;11432;46.924;7.114;2023-04-25T14:26:51;1.98;;;0.30;;
22531;SDS011;11432;46.924;7.114;2023-04-25T14:29:17;0.98;;;0.40;;
22531;SDS011;11432;46.924;7.114;2023-04-25T14:31:43;1.02;;;0.50;;
22531;SDS011;11432;46.924;7.114;2023-04-25T14:34:08;1.42;;;0.50;;
22531;SDS011;11432;46.924;7.114;2023-04-25T14:36:35;1.60;;;0.50;;
22531;SDS011;11432;46.924;7.114;2023-04-25T14:39:01;1.52;;;0.40;;
22531;SDS011;11432;46.924;7.114;2023-04-25T14:41:26;0.80;;;0.50;;
22531;SDS011;11432;46.924;7.114;2023-04-25T14:43:52;2.13;;;0.55;;
22531;SDS011;11432;46.924;7.114;2023-04-25T14:46:18;0.93;;;0.47;;
22531;SDS011;11432;46.924;7.114;2023-04-25T14:48:45;1.15;;;0.47;;
22531;SDS011;11432;46.924;7.114;2023-04-25T14:51:12;0.80;;;0.40;;
22531;SDS011;11432;46.924;7.114;2023-04-25T14:53:37;0.98;;;0.40;;
22531;SDS011;11432;46.924;7.114;2023-04-25T14:56:03;1.42;;;0.50;;
22531;SDS011;11432;46.924;7.114;2023-04-25T14:58:29;1.45;;;0.50;;
22531;SDS011;11432;46.924;7.114;2023-04-25T15:00:56;2.95;;;0.82;;
22531;SDS011;11432;46.924;7.114;2023-04-25T15:03:21;1.70;;;0.60;;